sensor_id;sensor_type;location;lat;lon;timestamp;pressure;altitude;pressure_sealevel;temperature;humidity
4024;BME280;2026;51.002;13.668;2022-09-03T00:04:25;99280.94;;;12.35;65.98
4024;BME280;2026;51.002;13.668;2022-09-03T00:09:35;99271.88;;;12.42;66.16
4024;BME280;2026;51.002;13.668;2022-09-03T00:14:46;99261.91;;;12.33;66.37
4024;BME280;2026;51.002;13.668;2022-09-03T00:19:55;99266.84;;;12.29;66.26
4024;BME280;2026;51.002;13.668;2022-09-03T00:25:03;99249.06;;;12.24;66.52
4024;BME280;2026;51.002;13.668;2022-09-03T00:30:09;99246.31;;;12.19;66.28
4024;BME280;2026;51.002;13.668;2022-09-03T00:35:22;99247.69;;;12.10;65.87
4024;BME280;2026;51.002;13.668;2022-09-03T00:40:55;99247.47;;;11.99;66.18
4024;BME280;2026;51.002;13.668;2022-09-03T00:46:08;99243.34;;;11.92;65.92
4024;BME280;2026;51.002;13.668;2022-09-03T00:51:28;99241.38;;;11.75;66.50
4024;BME280;2026;51.002;13.668;2022-09-03T00:56:41;99250.66;;;11.66;66.60
4024;BME280;2026;51.002;13.668;2022-09-03T01:01:55;99240.44;;;11.45;67.37
4024;BME280;2026;51.002;13.668;2022-09-03T01:07:10;99241.09;;;11.41;67.34
4024;BME280;2026;51.002;13.668;2022-09-03T01:12:24;99246.03;;;11.37;67.06
4024;BME280;2026;51.002;13.668;2022-09-03T01:17:38;99245.22;;;11.37;67.21
4024;BME280;2026;51.002;13.668;2022-09-03T01:23:23;99245.31;;;11.30;67.02
4024;BME280;2026;51.002;13.668;2022-09-03T01:28:51;99240.59;;;11.20;68.02
4024;BME280;2026;51.002;13.668;2022-09-03T01:34:05;99246.63;;;11.09;68.20
4024;BME280;2026;51.002;13.668;2022-09-03T01:39:17;99254.56;;;11.02;68.13
4024;BME280;2026;51.002;13.668;2022-09-03T01:44:31;99253.16;;;10.99;68.73
4024;BME280;2026;51.002;13.668;2022-09-03T01:49:44;99259.25;;;11.00;68.76
4024;BME280;2026;51.002;13.668;2022-09-03T01:54:59;99256.72;;;10.93;68.77
4024;BME280;2026;51.002;13.668;2022-09-03T02:00:11;99249.47;;;10.88;68.96
4024;BME280;2026;51.002;13.668;2022-09-03T02:05:16;99252.69;;;10.90;68.60
4024;BME280;2026;51.002;13.668;2022-09-03T02:10:24;99249.28;;;10.71;68.73
4024;BME280;2026;51.002;13.668;2022-09-03T02:15:34;99249.47;;;10.70;68.85
4024;BME280;2026;51.002;13.668;2022-09-03T02:20:38;99251.09;;;10.52;69.42
4024;BME280;2026;51.002;13.668;2022-09-03T02:25:44;99248.75;;;10.44;69.75
4024;BME280;2026;51.002;13.668;2022-09-03T02:30:51;99252.84;;;10.39;69.37
4024;BME280;2026;51.002;13.668;2022-09-03T02:35:54;99259.25;;;10.25;68.93
4024;BME280;2026;51.002;13.668;2022-09-03T02:40:57;99259.13;;;10.20;69.33
4024;BME280;2026;51.002;13.668;2022-09-03T02:46:04;99249.38;;;10.20;69.54
4024;BME280;2026;51.002;13.668;2022-09-03T02:51:08;99260.06;;;10.07;70.02
4024;BME280;2026;51.002;13.668;2022-09-03T02:56:15;99259.69;;;10.03;70.24
4024;BME280;2026;51.002;13.668;2022-09-03T03:01:19;99252.91;;;9.89;70.39
4024;BME280;2026;51.002;13.668;2022-09-03T03:06:25;99254.97;;;9.87;70.29
4024;BME280;2026;51.002;13.668;2022-09-03T03:11:28;99240.47;;;9.77;70.78
4024;BME280;2026;51.002;13.668;2022-09-03T03:16:32;99241.63;;;9.63;70.88
4024;BME280;2026;51.002;13.668;2022-09-03T03:21:35;99235.75;;;9.61;71.31
4024;BME280;2026;51.002;13.668;2022-09-03T03:26:38;99235.75;;;9.61;71.10
4024;BME280;2026;51.002;13.668;2022-09-03T03:31:43;99243.09;;;9.52;70.92
4024;BME280;2026;51.002;13.668;2022-09-03T03:36:46;99237.63;;;9.53;71.36
4024;BME280;2026;51.002;13.668;2022-09-03T03:41:49;99243.13;;;9.45;71.28
4024;BME280;2026;51.002;13.668;2022-09-03T03:46:54;99242.94;;;9.40;70.91
4024;BME280;2026;51.002;13.668;2022-09-03T03:51:57;99238.69;;;9.39;71.12
4024;BME280;2026;51.002;13.668;2022-09-03T03:57:00;99242.50;;;9.11;72.10
4024;BME280;2026;51.002;13.668;2022-09-03T04:02:04;99238.78;;;9.25;71.52
4024;BME280;2026;51.002;13.668;2022-09-03T04:07:08;99240.41;;;9.26;70.75
4024;BME280;2026;51.002;13.668;2022-09-03T04:12:11;99230.41;;;9.10;71.29
4024;BME280;2026;51.002;13.668;2022-09-03T04:17:15;99239.31;;;9.02;71.77
4024;BME280;2026;51.002;13.668;2022-09-03T04:22:27;99230.03;;;8.99;71.33
4024;BME280;2026;51.002;13.668;2022-09-03T04:27:30;99232.06;;;8.97;71.66
4024;BME280;2026;51.002;13.668;2022-09-03T04:32:35;99224.63;;;8.94;71.97
4024;BME280;2026;51.002;13.668;2022-09-03T04:37:56;99228.47;;;8.92;72.05
4024;BME280;2026;51.002;13.668;2022-09-03T04:42:59;99220.81;;;8.90;72.16
4024;BME280;2026;51.002;13.668;2022-09-03T04:48:04;99232.84;;;8.59;73.47
4024;BME280;2026;51.002;13.668;2022-09-03T04:53:11;99238.22;;;8.71;72.92
4024;BME280;2026;51.002;13.668;2022-09-03T04:58:14;99246.00;;;8.98;71.89
4024;BME280;2026;51.002;13.668;2022-09-03T05:03:18;99248.97;;;9.08;71.49
4024;BME280;2026;51.002;13.668;2022-09-03T05:08:22;99244.16;;;9.44;71.22
4024;BME280;2026;51.002;13.668;2022-09-03T05:13:27;99233.06;;;9.93;70.19
4024;BME280;2026;51.002;13.668;2022-09-03T05:18:32;99223.91;;;10.21;68.86
4024;BME280;2026;51.002;13.668;2022-09-03T05:23:38;99232.97;;;10.25;69.64
4024;BME280;2026;51.002;13.668;2022-09-03T05:28:42;99229.03;;;10.34;69.89
4024;BME280;2026;51.002;13.668;2022-09-03T05:33:48;99231.94;;;10.63;69.16
4024;BME280;2026;51.002;13.668;2022-09-03T05:38:52;99237.06;;;10.77;68.45
4024;BME280;2026;51.002;13.668;2022-09-03T05:43:56;99240.09;;;10.92;68.25
4024;BME280;2026;51.002;13.668;2022-09-03T05:49:03;99241.09;;;11.10;68.03
4024;BME280;2026;51.002;13.668;2022-09-03T05:54:07;99238.59;;;10.85;68.59
4024;BME280;2026;51.002;13.668;2022-09-03T05:59:10;99241.25;;;10.47;70.63
4024;BME280;2026;51.002;13.668;2022-09-03T06:04:15;99240.88;;;10.81;69.48
4024;BME280;2026;51.002;13.668;2022-09-03T06:09:20;99244.78;;;11.52;67.54
4024;BME280;2026;51.002;13.668;2022-09-03T06:14:24;99240.69;;;11.80;65.60
4024;BME280;2026;51.002;13.668;2022-09-03T06:19:28;99242.22;;;11.99;64.87
4024;BME280;2026;51.002;13.668;2022-09-03T06:24:31;99252.13;;;12.69;62.25
4024;BME280;2026;51.002;13.668;2022-09-03T06:29:35;99246.38;;;12.72;61.42
4024;BME280;2026;51.002;13.668;2022-09-03T06:34:40;99241.94;;;13.48;60.52
4024;BME280;2026;51.002;13.668;2022-09-03T06:39:44;99243.84;;;14.43;57.64
4024;BME280;2026;51.002;13.668;2022-09-03T06:44:47;99245.25;;;14.51;56.71
4024;BME280;2026;51.002;13.668;2022-09-03T06:49:53;99243.56;;;14.89;56.65
4024;BME280;2026;51.002;13.668;2022-09-03T06:54:56;99239.63;;;15.42;56.22
4024;BME280;2026;51.002;13.668;2022-09-03T06:59:59;99242.41;;;15.63;56.49
4024;BME280;2026;51.002;13.668;2022-09-03T07:05:05;99239.78;;;15.02;57.03
4024;BME280;2026;51.002;13.668;2022-09-03T07:10:09;99227.41;;;16.11;54.99
4024;BME280;2026;51.002;13.668;2022-09-03T07:15:14;99231.50;;;15.92;54.68
4024;BME280;2026;51.002;13.668;2022-09-03T07:20:19;99222.94;;;15.84;50.44
4024;BME280;2026;51.002;13.668;2022-09-03T07:25:23;99213.72;;;16.40;51.02
4024;BME280;2026;51.002;13.668;2022-09-03T07:30:27;99211.06;;;16.35;49.72
4024;BME280;2026;51.002;13.668;2022-09-03T07:35:35;99214.56;;;16.51;49.51
4024;BME280;2026;51.002;13.668;2022-09-03T07:40:38;99205.88;;;16.87;48.30
4024;BME280;2026;51.002;13.668;2022-09-03T07:45:41;99208.03;;;16.95;47.98
4024;BME280;2026;51.002;13.668;2022-09-03T07:50:49;99208.41;;;16.40;48.16
4024;BME280;2026;51.002;13.668;2022-09-03T07:55:52;99205.16;;;17.39;48.29
4024;BME280;2026;51.002;13.668;2022-09-03T08:00:55;99206.47;;;17.72;45.47
4024;BME280;2026;51.002;13.668;2022-09-03T08:06:01;99203.03;;;17.61;45.35
4024;BME280;2026;51.002;13.668;2022-09-03T08:11:06;99209.69;;;17.38;46.85
4024;BME280;2026;51.002;13.668;2022-09-03T08:16:11;99200.59;;;18.01;45.61
4024;BME280;2026;51.002;13.668;2022-09-03T08:21:17;99202.16;;;18.13;44.20
4024;BME280;2026;51.002;13.668;2022-09-03T08:26:21;99211.19;;;18.12;44.49
4024;BME280;2026;51.002;13.668;2022-09-03T08:31:24;99204.00;;;18.78;43.26
4024;BME280;2026;51.002;13.668;2022-09-03T08:36:31;99199.53;;;18.63;42.80
4024;BME280;2026;51.002;13.668;2022-09-03T08:41:43;99205.84;;;18.22;43.89
4024;BME280;2026;51.002;13.668;2022-09-03T08:46:55;99199.94;;;18.36;42.24
4024;BME280;2026;51.002;13.668;2022-09-03T08:52:04;99196.34;;;17.85;45.03
4024;BME280;2026;51.002;13.668;2022-09-03T08:57:08;99194.59;;;18.46;43.71
4024;BME280;2026;51.002;13.668;2022-09-03T09:02:21;99191.34;;;18.54;42.92
4024;BME280;2026;51.002;13.668;2022-09-03T09:07:31;99182.59;;;18.89;42.43
4024;BME280;2026;51.002;13.668;2022-09-03T09:12:46;99184.94;;;19.35;41.81
4024;BME280;2026;51.002;13.668;2022-09-03T09:18:03;99172.84;;;19.48;40.13
4024;BME280;2026;51.002;13.668;2022-09-03T09:23:17;99179.59;;;19.65;40.53
4024;BME280;2026;51.002;13.668;2022-09-03T09:28:23;99183.56;;;18.63;42.18
4024;BME280;2026;51.002;13.668;2022-09-03T09:33:29;99170.19;;;18.73;42.45
4024;BME280;2026;51.002;13.668;2022-09-03T09:38:38;99157.69;;;19.98;39.79
4024;BME280;2026;51.002;13.668;2022-09-03T09:43:42;99168.69;;;20.15;39.08
4024;BME280;2026;51.002;13.668;2022-09-03T09:48:49;99147.28;;;20.59;37.58
4024;BME280;2026;51.002;13.668;2022-09-03T09:54:02;99157.09;;;19.47;39.84
4024;BME280;2026;51.002;13.668;2022-09-03T09:59:07;99157.88;;;19.77;41.48
4024;BME280;2026;51.002;13.668;2022-09-03T10:04:11;99155.19;;;20.06;40.50
4024;BME280;2026;51.002;13.668;2022-09-03T10:09:17;99137.78;;;20.72;40.11
4024;BME280;2026;51.002;13.668;2022-09-03T10:14:24;99142.94;;;20.63;38.08
4024;BME280;2026;51.002;13.668;2022-09-03T10:19:40;99135.94;;;20.48;38.34
4024;BME280;2026;51.002;13.668;2022-09-03T10:25:07;99144.50;;;20.69;37.86
4024;BME280;2026;51.002;13.668;2022-09-03T10:30:12;99143.88;;;20.15;41.73
4024;BME280;2026;51.002;13.668;2022-09-03T10:35:22;99134.41;;;20.99;36.21
4024;BME280;2026;51.002;13.668;2022-09-03T10:40:35;99126.81;;;20.73;35.94
4024;BME280;2026;51.002;13.668;2022-09-03T10:45:47;99118.69;;;20.40;37.20
4024;BME280;2026;51.002;13.668;2022-09-03T10:50:55;99121.31;;;20.02;37.54
4024;BME280;2026;51.002;13.668;2022-09-03T10:56:05;99098.84;;;20.99;37.44
4024;BME280;2026;51.002;13.668;2022-09-03T11:01:17;99110.91;;;21.29;35.89
4024;BME280;2026;51.002;13.668;2022-09-03T11:06:26;99111.88;;;21.33;35.97
4024;BME280;2026;51.002;13.668;2022-09-03T11:11:34;99098.31;;;20.83;36.37
4024;BME280;2026;51.002;13.668;2022-09-03T11:16:44;99098.09;;;21.26;36.00
4024;BME280;2026;51.002;13.668;2022-09-03T11:21:50;99088.34;;;21.64;36.30
4024;BME280;2026;51.002;13.668;2022-09-03T11:27:01;99093.31;;;20.57;37.66
4024;BME280;2026;51.002;13.668;2022-09-03T11:32:09;99084.94;;;21.16;35.77
4024;BME280;2026;51.002;13.668;2022-09-03T11:37:21;99088.53;;;21.81;34.79
4024;BME280;2026;51.002;13.668;2022-09-03T11:42:33;99079.44;;;21.68;35.64
4024;BME280;2026;51.002;13.668;2022-09-03T11:47:39;99089.31;;;21.96;35.73
4024;BME280;2026;51.002;13.668;2022-09-03T11:52:42;99092.19;;;21.43;35.81
4024;BME280;2026;51.002;13.668;2022-09-03T11:57:47;99079.22;;;21.65;36.44
4024;BME280;2026;51.002;13.668;2022-09-03T12:02:54;99072.03;;;22.30;35.94
4024;BME280;2026;51.002;13.668;2022-09-03T12:08:18;99074.97;;;21.36;35.48
4024;BME280;2026;51.002;13.668;2022-09-03T12:13:40;99076.22;;;22.08;35.55
4024;BME280;2026;51.002;13.668;2022-09-03T12:18:48;99073.34;;;21.21;35.09
4024;BME280;2026;51.002;13.668;2022-09-03T12:23:53;99076.25;;;21.66;35.86
4024;BME280;2026;51.002;13.668;2022-09-03T12:29:00;99073.47;;;21.43;35.51
4024;BME280;2026;51.002;13.668;2022-09-03T12:34:13;99073.00;;;20.94;35.95
4024;BME280;2026;51.002;13.668;2022-09-03T12:39:19;99056.41;;;21.81;34.66
4024;BME280;2026;51.002;13.668;2022-09-03T12:44:46;99056.63;;;21.43;36.12
4024;BME280;2026;51.002;13.668;2022-09-03T12:49:50;99052.75;;;21.49;35.67
4024;BME280;2026;51.002;13.668;2022-09-03T12:54:56;99056.63;;;21.71;34.92
4024;BME280;2026;51.002;13.668;2022-09-03T13:00:06;99044.88;;;21.95;35.21
4024;BME280;2026;51.002;13.668;2022-09-03T13:05:13;99047.53;;;22.09;35.34
4024;BME280;2026;51.002;13.668;2022-09-03T13:10:25;99040.66;;;22.17;34.61
4024;BME280;2026;51.002;13.668;2022-09-03T13:15:30;99039.50;;;21.58;36.48
4024;BME280;2026;51.002;13.668;2022-09-03T13:20:39;99037.50;;;22.14;34.75
4024;BME280;2026;51.002;13.668;2022-09-03T13:25:54;99039.19;;;21.73;34.94
4024;BME280;2026;51.002;13.668;2022-09-03T13:31:21;99027.38;;;22.11;33.95
4024;BME280;2026;51.002;13.668;2022-09-03T13:36:29;99031.25;;;21.82;33.72
4024;BME280;2026;51.002;13.668;2022-09-03T13:41:38;99029.38;;;22.65;33.60
4024;BME280;2026;51.002;13.668;2022-09-03T13:46:52;99022.22;;;22.29;34.61
4024;BME280;2026;51.002;13.668;2022-09-03T13:51:59;99022.28;;;22.24;34.21
4024;BME280;2026;51.002;13.668;2022-09-03T13:57:08;99021.84;;;22.08;34.00
4024;BME280;2026;51.002;13.668;2022-09-03T14:02:27;99023.53;;;22.40;34.14
4024;BME280;2026;51.002;13.668;2022-09-03T14:07:46;99017.78;;;22.10;35.56
4024;BME280;2026;51.002;13.668;2022-09-03T14:13:01;99007.63;;;21.84;34.85
4024;BME280;2026;51.002;13.668;2022-09-03T14:18:13;99009.59;;;22.30;34.26
4024;BME280;2026;51.002;13.668;2022-09-03T14:23:27;99014.34;;;21.96;34.05
4024;BME280;2026;51.002;13.668;2022-09-03T14:28:36;99022.13;;;21.69;35.65
4024;BME280;2026;51.002;13.668;2022-09-03T14:33:50;99014.63;;;22.08;34.89
4024;BME280;2026;51.002;13.668;2022-09-03T14:39:11;99020.13;;;21.89;34.67
4024;BME280;2026;51.002;13.668;2022-09-03T14:44:43;99016.28;;;22.04;33.87
4024;BME280;2026;51.002;13.668;2022-09-03T14:50:02;99017.34;;;22.31;33.93
4024;BME280;2026;51.002;13.668;2022-09-03T14:55:17;99000.25;;;22.50;35.32
4024;BME280;2026;51.002;13.668;2022-09-03T15:00:30;99005.34;;;21.78;35.16
4024;BME280;2026;51.002;13.668;2022-09-03T15:05:49;99003.53;;;22.01;34.19
4024;BME280;2026;51.002;13.668;2022-09-03T15:11:13;99010.19;;;21.90;34.69
4024;BME280;2026;51.002;13.668;2022-09-03T15:21:57;99008.22;;;21.81;34.49
4024;BME280;2026;51.002;13.668;2022-09-03T15:27:15;99004.19;;;21.70;35.20
4024;BME280;2026;51.002;13.668;2022-09-03T15:32:31;99007.41;;;21.95;34.92
4024;BME280;2026;51.002;13.668;2022-09-03T15:37:45;99007.88;;;21.97;34.89
4024;BME280;2026;51.002;13.668;2022-09-03T15:42:51;99010.50;;;21.74;35.13
4024;BME280;2026;51.002;13.668;2022-09-03T15:48:06;99014.91;;;21.70;35.65
4024;BME280;2026;51.002;13.668;2022-09-03T15:53:18;99011.22;;;21.80;35.55
4024;BME280;2026;51.002;13.668;2022-09-03T15:58:30;99013.03;;;21.56;35.40
4024;BME280;2026;51.002;13.668;2022-09-03T16:03:46;99021.56;;;21.58;35.46
4024;BME280;2026;51.002;13.668;2022-09-03T16:08:59;99017.56;;;21.70;35.25
4024;BME280;2026;51.002;13.668;2022-09-03T16:14:08;99016.81;;;21.55;36.43
4024;BME280;2026;51.002;13.668;2022-09-03T16:19:15;99014.00;;;21.46;36.87
4024;BME280;2026;51.002;13.668;2022-09-03T16:24:23;99014.31;;;21.17;37.45
4024;BME280;2026;51.002;13.668;2022-09-03T16:29:29;99024.50;;;21.01;37.87
4024;BME280;2026;51.002;13.668;2022-09-03T16:34:41;99017.44;;;20.91;39.51
4024;BME280;2026;51.002;13.668;2022-09-03T16:39:56;99026.81;;;20.74;39.48
4024;BME280;2026;51.002;13.668;2022-09-03T16:45:12;99027.19;;;20.48;39.82
4024;BME280;2026;51.002;13.668;2022-09-03T16:50:27;99022.38;;;20.50;40.03
4024;BME280;2026;51.002;13.668;2022-09-03T16:55:51;99010.63;;;20.32;41.17
4024;BME280;2026;51.002;13.668;2022-09-03T17:01:07;99018.28;;;20.20;41.85
4024;BME280;2026;51.002;13.668;2022-09-03T17:06:42;99013.69;;;19.87;43.01
4024;BME280;2026;51.002;13.668;2022-09-03T17:11:58;99023.22;;;19.45;45.49
4024;BME280;2026;51.002;13.668;2022-09-03T17:17:14;99015.22;;;19.45;45.79
4024;BME280;2026;51.002;13.668;2022-09-03T17:22:32;99029.69;;;19.38;46.36
4024;BME280;2026;51.002;13.668;2022-09-03T17:27:48;99027.28;;;19.18;46.49
4024;BME280;2026;51.002;13.668;2022-09-03T17:33:06;99031.22;;;18.96;46.87
4024;BME280;2026;51.002;13.668;2022-09-03T17:38:41;99034.72;;;18.86;47.16
4024;BME280;2026;51.002;13.668;2022-09-03T17:43:53;99033.28;;;18.69;47.58
4024;BME280;2026;51.002;13.668;2022-09-03T17:49:01;99041.16;;;18.50;48.04
4024;BME280;2026;51.002;13.668;2022-09-03T17:54:07;99039.66;;;18.34;48.46
4024;BME280;2026;51.002;13.668;2022-09-03T17:59:20;99045.09;;;18.18;49.12
4024;BME280;2026;51.002;13.668;2022-09-03T18:04:42;99042.75;;;18.01;49.57
4024;BME280;2026;51.002;13.668;2022-09-03T18:09:53;99060.13;;;17.83;50.32
4024;BME280;2026;51.002;13.668;2022-09-03T18:15:07;99061.78;;;17.68;50.68
4024;BME280;2026;51.002;13.668;2022-09-03T18:20:13;99073.81;;;17.50;50.90
4024;BME280;2026;51.002;13.668;2022-09-03T18:25:35;99074.38;;;17.42;51.09
4024;BME280;2026;51.002;13.668;2022-09-03T18:30:58;99087.66;;;17.36;51.62
4024;BME280;2026;51.002;13.668;2022-09-03T18:36:19;99086.88;;;17.31;51.42
4024;BME280;2026;51.002;13.668;2022-09-03T18:41:50;99092.22;;;17.10;52.05
4024;BME280;2026;51.002;13.668;2022-09-03T18:47:26;99089.53;;;16.84;52.76
4024;BME280;2026;51.002;13.668;2022-09-03T18:53:13;99092.19;;;16.84;52.74
4024;BME280;2026;51.002;13.668;2022-09-03T18:58:39;99099.09;;;16.85;53.24
4024;BME280;2026;51.002;13.668;2022-09-03T19:04:08;99094.28;;;16.35;55.09
4024;BME280;2026;51.002;13.668;2022-09-03T19:09:43;99104.31;;;16.23;55.12
4024;BME280;2026;51.002;13.668;2022-09-03T19:15:07;99097.72;;;16.41;54.88
4024;BME280;2026;51.002;13.668;2022-09-03T19:20:34;99099.97;;;16.01;56.04
4024;BME280;2026;51.002;13.668;2022-09-03T19:26:01;99097.38;;;16.11;55.56
4024;BME280;2026;51.002;13.668;2022-09-03T19:31:37;99102.69;;;16.11;55.88
4024;BME280;2026;51.002;13.668;2022-09-03T19:37:05;99103.72;;;16.05;56.35
4024;BME280;2026;51.002;13.668;2022-09-03T19:42:38;99111.69;;;16.05;56.77
4024;BME280;2026;51.002;13.668;2022-09-03T19:48:08;99104.69;;;15.94;56.93
4024;BME280;2026;51.002;13.668;2022-09-03T19:53:34;99117.88;;;15.78;57.89
4024;BME280;2026;51.002;13.668;2022-09-03T19:58:58;99122.56;;;15.61;58.38
4024;BME280;2026;51.002;13.668;2022-09-03T20:04:25;99128.97;;;15.65;57.92
4024;BME280;2026;51.002;13.668;2022-09-03T20:09:49;99134.28;;;15.65;58.68
4024;BME280;2026;51.002;13.668;2022-09-03T20:15:10;99140.88;;;15.62;58.57
4024;BME280;2026;51.002;13.668;2022-09-03T20:20:16;99138.72;;;15.54;58.77
4024;BME280;2026;51.002;13.668;2022-09-03T20:25:39;99149.81;;;15.51;59.79
4024;BME280;2026;51.002;13.668;2022-09-03T20:30:51;99148.34;;;15.33;60.15
4024;BME280;2026;51.002;13.668;2022-09-03T20:36:05;99139.28;;;15.23;60.38
4024;BME280;2026;51.002;13.668;2022-09-03T20:41:16;99151.94;;;14.88;62.21
4024;BME280;2026;51.002;13.668;2022-09-03T20:46:38;99154.75;;;15.04;61.98
4024;BME280;2026;51.002;13.668;2022-09-03T20:51:50;99155.09;;;14.85;62.31
4024;BME280;2026;51.002;13.668;2022-09-03T20:57:19;99157.88;;;14.96;61.68
4024;BME280;2026;51.002;13.668;2022-09-03T21:02:38;99155.50;;;14.99;61.58
4024;BME280;2026;51.002;13.668;2022-09-03T21:07:52;99158.75;;;15.07;61.93
4024;BME280;2026;51.002;13.668;2022-09-03T21:13:08;99162.09;;;14.97;61.96
4024;BME280;2026;51.002;13.668;2022-09-03T21:18:17;99167.34;;;14.64;63.65
4024;BME280;2026;51.002;13.668;2022-09-03T21:23:28;99162.19;;;14.80;63.14
4024;BME280;2026;51.002;13.668;2022-09-03T21:28:38;99162.81;;;14.65;63.62
4024;BME280;2026;51.002;13.668;2022-09-03T21:33:46;99158.94;;;14.72;63.49
4024;BME280;2026;51.002;13.668;2022-09-03T21:39:02;99161.59;;;14.72;63.27
4024;BME280;2026;51.002;13.668;2022-09-03T21:44:14;99172.56;;;14.59;63.97
4024;BME280;2026;51.002;13.668;2022-09-03T21:49:22;99172.94;;;14.01;66.23
4024;BME280;2026;51.002;13.668;2022-09-03T21:54:27;99186.00;;;13.90;66.97
4024;BME280;2026;51.002;13.668;2022-09-03T21:59:52;99188.41;;;14.09;66.13
4024;BME280;2026;51.002;13.668;2022-09-03T22:04:59;99184.00;;;13.98;66.82
4024;BME280;2026;51.002;13.668;2022-09-03T22:10:08;99184.03;;;13.63;67.89
4024;BME280;2026;51.002;13.668;2022-09-03T22:15:22;99193.97;;;13.56;68.20
4024;BME280;2026;51.002;13.668;2022-09-03T22:20:26;99187.25;;;13.83;67.03
4024;BME280;2026;51.002;13.668;2022-09-03T22:25:34;99195.53;;;13.91;66.63
4024;BME280;2026;51.002;13.668;2022-09-03T22:30:49;99184.53;;;14.00;66.13
4024;BME280;2026;51.002;13.668;2022-09-03T22:36:08;99179.78;;;13.79;67.28
4024;BME280;2026;51.002;13.668;2022-09-03T22:41:25;99178.34;;;13.89;66.20
4024;BME280;2026;51.002;13.668;2022-09-03T22:46:41;99181.00;;;13.89;66.59
4024;BME280;2026;51.002;13.668;2022-09-03T22:51:55;99185.66;;;13.82;66.78
4024;BME280;2026;51.002;13.668;2022-09-03T22:57:03;99184.50;;;13.60;67.90
4024;BME280;2026;51.002;13.668;2022-09-03T23:02:12;99183.41;;;13.73;67.42
4024;BME280;2026;51.002;13.668;2022-09-03T23:07:21;99179.22;;;13.77;68.04
4024;BME280;2026;51.002;13.668;2022-09-03T23:12:32;99178.34;;;13.72;68.04
4024;BME280;2026;51.002;13.668;2022-09-03T23:17:42;99183.56;;;13.84;66.98
4024;BME280;2026;51.002;13.668;2022-09-03T23:22:49;99184.91;;;13.86;67.18
4024;BME280;2026;51.002;13.668;2022-09-03T23:27:58;99188.84;;;13.84;67.36
4024;BME280;2026;51.002;13.668;2022-09-03T23:33:04;99179.88;;;13.85;67.52
4024;BME280;2026;51.002;13.668;2022-09-03T23:38:13;99182.75;;;13.83;67.48
4024;BME280;2026;51.002;13.668;2022-09-03T23:43:42;99185.47;;;13.88;67.68
4024;BME280;2026;51.002;13.668;2022-09-03T23:48:59;99178.63;;;13.92;67.60
4024;BME280;2026;51.002;13.668;2022-09-03T23:54:16;99182.91;;;13.76;68.14
4024;BME280;2026;51.002;13.668;2022-09-03T23:59:28;99186.19;;;13.66;68.50
